Terminal Aerodrome Forecast
Issued by NWS

Home | Current Version | Previous Version | Text Only | Print | Product List | Glossary On
Versions: 1 2 3 4 5 6 7 8 9 10 11 12 13 14 15 16
000
FTUS42 KMLB 030239 AAA
TAFTIX
TAF AMD
KTIX 030239Z 0303/0324 VRB03KT P6SM SCT025 BKN060 OVC250
      TEMPO 0303/0304 -RA
     FM030400 00000KT P6SM SCT030 OVC060
     FM031400 14005KT P6SM VCSH SCT030 SCT100 BKN250
     FM031600 11009KT P6SM VCSH SCT025 BKN060
      AMD NOT SKED TIL 031200=

USA.gov is the U.S. government's official web portal to all federal, state and local government web resources and services.